Time;durP1;ratioP1;P1;durP2;ratioP2;P2;SDS_P1;SDS_P2;PMS_P1;PMS_P2;Temp;Humidity;BMP_temperature;BMP_pressure;BME280_temperature;BME280_humidity;BME280_pressure;Samples;Min_cycle;Max_cycle;Signal;HPM_P1;HPM_P2
2022/06/01 00:02:25;;;;;;;3.63;2.70;;;13.00;99.90;;;;;;5025809;28;20220;-73
2022/06/01 00:04:52;;;;;;;3.10;2.50;;;12.80;99.90;;;;;;5020018;28;20565;-74
2022/06/01 00:07:19;;;;;;;4.20;2.70;;;12.80;99.90;;;;;;5016013;28;20211;-73
2022/06/01 00:09:45;;;;;;;4.57;3.07;;;12.90;99.90;;;;;;5020094;28;20205;-74
2022/06/01 00:12:12;;;;;;;4.03;2.97;;;12.80;99.90;;;;;;5022933;28;20235;-74
2022/06/01 00:14:39;;;;;;;6.43;3.20;;;12.60;99.90;;;;;;5016775;28;20215;-73
2022/06/01 00:17:06;;;;;;;4.80;3.23;;;12.40;99.90;;;;;;5024860;28;20203;-69
2022/06/01 00:19:32;;;;;;;3.23;2.73;;;12.40;99.90;;;;;;5026809;28;20202;-69
2022/06/01 00:22:11;;;;;;;5.17;3.33;;;12.40;99.90;;;;;;5023889;28;20204;-69
2022/06/01 00:24:42;;;;;;;3.00;2.70;;;12.40;99.90;;;;;;5026452;28;20627;-73
2022/06/01 00:27:10;;;;;;;4.13;2.80;;;12.30;99.90;;;;;;5021739;28;20543;-73
2022/06/01 00:29:38;;;;;;;4.30;3.00;;;12.20;99.90;;;;;;5020560;28;20202;-68
2022/06/01 00:32:06;;;;;;;4.13;2.87;;;12.10;99.90;;;;;;5019614;28;20219;-67
2022/06/01 00:34:33;;;;;;;4.00;2.50;;;12.20;99.90;;;;;;5025599;28;20218;-68
2022/06/01 00:37:00;;;;;;;3.33;2.43;;;12.10;99.90;;;;;;5023381;28;20198;-69
2022/06/01 00:39:26;;;;;;;2.80;2.50;;;12.10;99.90;;;;;;5022405;28;20199;-68
2022/06/01 00:41:53;;;;;;;3.53;2.60;;;12.10;99.90;;;;;;5026800;28;20210;-74
2022/06/01 00:44:20;;;;;;;2.77;2.40;;;12.30;99.90;;;;;;5026944;28;20216;-74
2022/06/01 00:46:46;;;;;;;3.63;2.73;;;12.30;99.90;;;;;;5022896;28;20201;-73
2022/06/01 00:49:21;;;;;;;6.30;2.83;;;12.20;99.90;;;;;;5018456;28;20222;-71
2022/06/01 00:51:49;;;;;;;4.90;2.77;;;12.20;99.90;;;;;;5023416;28;20225;-71
2022/06/01 00:54:16;;;;;;;3.53;2.80;;;12.10;99.90;;;;;;5026171;28;20215;-69
2022/06/01 00:56:50;;;;;;;4.33;2.70;;;12.10;99.90;;;;;;5021590;28;20197;-72
2022/06/01 00:59:21;;;;;;;5.73;2.60;;;12.10;99.90;;;;;;5025094;28;20210;-70
2022/06/01 01:01:49;;;;;;;4.27;2.60;;;11.90;99.90;;;;;;5021245;28;20199;-73
2022/06/01 01:04:15;;;;;;;3.20;2.70;;;11.90;99.90;;;;;;5026756;28;20312;-71
2022/06/01 01:06:43;;;;;;;6.30;3.00;;;11.90;99.90;;;;;;5019454;28;20213;-69
2022/06/01 01:09:11;;;;;;;3.87;2.87;;;11.80;99.90;;;;;;5022715;28;20329;-73
2022/06/01 01:11:57;;;;;;;4.53;2.80;;;11.80;99.90;;;;;;5019660;28;20207;-71
2022/06/01 01:14:28;;;;;;;3.90;2.80;;;11.80;99.90;;;;;;5015926;28;20235;-73
2022/06/01 01:16:55;;;;;;;4.00;2.90;;;12.00;99.90;;;;;;5024639;28;20203;-73
2022/06/01 01:19:48;;;;;;;5.80;2.70;;;11.90;99.90;;;;;;5022124;28;20210;-71
2022/06/01 01:28:44;;;;;;;3.60;2.70;;;12.00;99.90;;;;;;4989017;28;20212;-77
2022/06/01 01:31:13;;;;;;;3.97;2.53;;;12.10;99.90;;;;;;5006020;28;20220;-81
2022/06/01 01:33:40;;;;;;;4.03;2.73;;;12.10;99.90;;;;;;5006133;28;20228;-79
2022/06/01 01:36:10;;;;;;;4.50;2.70;;;12.00;99.90;;;;;;5003963;28;20307;-80
2022/06/01 01:39:13;;;;;;;3.70;2.60;;;11.90;99.90;;;;;;4985834;28;20489;-80
2022/06/01 01:41:44;;;;;;;4.10;2.67;;;12.00;99.90;;;;;;5005735;28;20209;-79
2022/06/01 01:44:25;;;;;;;3.13;2.70;;;12.10;99.90;;;;;;4994832;28;20210;-79
2022/06/01 01:46:53;;;;;;;4.53;2.73;;;12.20;99.90;;;;;;5004772;28;20200;-78
2022/06/01 01:49:30;;;;;;;3.97;3.00;;;12.20;99.90;;;;;;5006979;28;20205;-81
2022/06/01 01:52:00;;;;;;;3.47;2.70;;;12.10;99.90;;;;;;4984080;28;20204;-77
2022/06/01 01:54:42;;;;;;;5.80;2.80;;;12.30;99.90;;;;;;5006038;28;20222;-75
2022/06/01 01:57:36;;;;;;;4.00;2.50;;;12.30;99.90;;;;;;5002326;28;20198;-76
2022/06/01 02:00:29;;;;;;;4.40;2.57;;;12.30;99.90;;;;;;5002995;28;20197;-74
2022/06/01 02:03:19;;;;;;;3.17;2.87;;;12.10;99.90;;;;;;5002755;28;20211;-77
2022/06/01 02:06:06;;;;;;;4.77;2.87;;;12.10;99.90;;;;;;4998038;28;20221;-74
2022/06/01 02:09:08;;;;;;;4.70;2.70;;;11.90;99.90;;;;;;5006683;28;20212;-73
2022/06/01 02:14:38;;;;;;;4.97;3.10;;;12.00;99.90;;;;;;5006846;28;20231;-81
2022/06/01 02:17:08;;;;;;;4.70;3.13;;;12.00;99.90;;;;;;5004748;28;20286;-75
2022/06/01 02:19:57;;;;;;;4.30;3.17;;;11.90;99.90;;;;;;5003369;28;20198;-73
2022/06/01 02:22:24;;;;;;;4.57;3.10;;;11.90;99.90;;;;;;5001373;28;20205;-80
2022/06/01 02:24:51;;;;;;;4.20;3.20;;;11.80;99.90;;;;;;5003830;28;20231;-81
2022/06/01 02:27:19;;;;;;;4.50;3.03;;;11.70;99.90;;;;;;5006331;28;20192;-79
2022/06/01 02:30:01;;;;;;;3.43;2.97;;;11.80;99.90;;;;;;4998993;28;20271;-79
2022/06/01 02:32:28;;;;;;;3.53;2.73;;;11.80;99.90;;;;;;4999683;28;20205;-74
2022/06/01 02:34:58;;;;;;;6.47;3.00;;;11.80;99.90;;;;;;5002106;28;20219;-74
2022/06/01 02:37:26;;;;;;;5.00;3.00;;;11.80;99.90;;;;;;5000972;28;20202;-77
2022/06/01 02:39:55;;;;;;;3.97;3.00;;;11.80;99.90;;;;;;4998348;28;20300;-72
2022/06/01 02:42:31;;;;;;;5.17;2.90;;;11.70;99.90;;;;;;4988869;28;20202;-74
2022/06/01 02:44:59;;;;;;;4.27;3.47;;;11.70;99.90;;;;;;5008399;28;20219;-77
2022/06/01 02:47:33;;;;;;;4.43;3.10;;;11.70;99.90;;;;;;5006287;28;20207;-72
2022/06/01 02:50:00;;;;;;;6.93;3.10;;;11.70;99.90;;;;;;5002751;28;20656;-79
2022/06/01 02:52:27;;;;;;;5.10;3.63;;;11.70;99.90;;;;;;4993473;28;20224;-75
2022/06/01 02:54:54;;;;;;;3.83;3.10;;;11.70;99.90;;;;;;4993492;28;20234;-76
2022/06/01 02:57:21;;;;;;;3.37;3.03;;;11.80;99.90;;;;;;5009022;28;20640;-75
2022/06/01 02:59:48;;;;;;;3.33;2.90;;;11.80;99.90;;;;;;4989500;28;20209;-74
2022/06/01 03:02:15;;;;;;;4.87;3.43;;;11.80;99.90;;;;;;5004154;28;20190;-73
2022/06/01 03:04:45;;;;;;;4.37;3.30;;;11.90;99.90;;;;;;5007469;28;20221;-73
2022/06/01 03:07:12;;;;;;;3.83;3.10;;;11.90;99.90;;;;;;4991791;28;20678;-73
2022/06/01 03:09:40;;;;;;;4.40;3.30;;;11.90;99.90;;;;;;4994037;28;20289;-73
2022/06/01 03:12:07;;;;;;;5.83;3.53;;;11.90;99.90;;;;;;5007353;28;20470;-74
2022/06/01 03:14:36;;;;;;;5.13;3.70;;;11.80;99.90;;;;;;5002762;28;20409;-71
2022/06/01 03:17:05;;;;;;;5.90;4.20;;;11.90;99.90;;;;;;5011133;28;20332;-73
2022/06/01 03:19:32;;;;;;;6.83;4.30;;;11.90;99.90;;;;;;5010265;28;20194;-74
2022/06/01 03:21:59;;;;;;;4.40;3.80;;;11.90;99.90;;;;;;5003678;28;20209;-74
2022/06/01 03:24:26;;;;;;;6.63;3.60;;;12.10;99.90;;;;;;4988358;28;20229;-77
2022/06/01 03:26:53;;;;;;;6.30;4.03;;;12.10;99.90;;;;;;5002387;28;21840;-78
2022/06/01 03:29:21;;;;;;;5.37;4.03;;;12.10;99.90;;;;;;5002944;28;20634;-72
2022/06/01 03:31:48;;;;;;;4.67;3.80;;;12.20;99.90;;;;;;5007643;28;20213;-74
2022/06/01 03:34:15;;;;;;;5.57;3.70;;;12.40;99.90;;;;;;5002516;28;20270;-77
2022/06/01 03:36:42;;;;;;;5.97;3.73;;;12.30;99.90;;;;;;5001235;28;20190;-75
2022/06/01 03:39:09;;;;;;;5.53;3.50;;;12.10;99.90;;;;;;5005696;28;20203;-80
2022/06/01 03:41:35;;;;;;;5.20;3.30;;;12.00;99.90;;;;;;5003192;28;20602;-75
2022/06/01 03:46:47;;;;;;;5.23;3.90;;;12.00;99.90;;;;;;5002585;28;20203;-77
2022/06/01 03:49:14;;;;;;;6.63;3.87;;;12.00;99.90;;;;;;5007258;28;20203;-77
2022/06/01 03:51:41;;;;;;;4.53;3.63;;;12.00;99.90;;;;;;5001379;28;20571;-76
2022/06/01 03:54:07;;;;;;;6.07;4.30;;;11.90;99.90;;;;;;5009583;28;20210;-79
2022/06/01 03:56:34;;;;;;;5.57;3.87;;;12.00;99.90;;;;;;5009225;28;20206;-74
2022/06/01 03:59:00;;;;;;;6.40;4.30;;;12.00;99.90;;;;;;5006185;28;20199;-77
2022/06/01 04:01:27;;;;;;;7.57;4.13;;;11.90;99.90;;;;;;5006811;28;20198;-76
2022/06/01 04:03:54;;;;;;;6.03;4.00;;;11.90;99.90;;;;;;5002909;28;20266;-76
2022/06/01 04:06:21;;;;;;;6.83;4.33;;;12.10;99.90;;;;;;4997753;28;20642;-77
2022/06/01 04:08:47;;;;;;;5.93;4.23;;;12.30;99.90;;;;;;4999485;28;20265;-75
2022/06/01 04:11:14;;;;;;;4.43;3.70;;;12.50;99.90;;;;;;5006572;28;20604;-75
2022/06/01 04:13:41;;;;;;;4.77;3.63;;;12.40;99.90;;;;;;5007851;28;20227;-74
2022/06/01 04:16:07;;;;;;;4.83;3.60;;;12.40;99.90;;;;;;4984779;28;20222;-74
2022/06/01 04:18:54;;;;;;;7.67;4.00;;;12.30;99.90;;;;;;5009425;28;20579;-75
2022/06/01 04:21:26;;;;;;;6.60;3.93;;;12.20;99.90;;;;;;5009315;28;20203;-74
2022/06/01 04:23:58;;;;;;;9.27;4.20;;;12.20;99.90;;;;;;4983239;28;20200;-74
2022/06/01 04:26:25;;;;;;;4.80;3.63;;;12.20;99.90;;;;;;4995113;28;20651;-73
2022/06/01 04:28:55;;;;;;;5.50;4.20;;;12.10;99.90;;;;;;5007078;28;20219;-74
2022/06/01 04:31:22;;;;;;;5.40;4.07;;;12.10;99.90;;;;;;5008317;28;20201;-74
2022/06/01 04:33:49;;;;;;;5.77;4.10;;;12.30;99.90;;;;;;4998416;28;20317;-72
2022/06/01 04:36:15;;;;;;;7.07;4.50;;;12.40;99.90;;;;;;5005595;28;20228;-73
2022/06/01 04:38:42;;;;;;;6.37;4.80;;;12.50;99.90;;;;;;5004253;28;20772;-72
2022/06/01 04:41:08;;;;;;;7.63;4.60;;;12.70;99.90;;;;;;5007854;28;20201;-73
2022/06/01 04:43:35;;;;;;;5.83;4.40;;;12.80;99.90;;;;;;5005007;28;20675;-73
2022/06/01 04:46:02;;;;;;;7.50;4.57;;;13.00;99.90;;;;;;5000853;28;20587;-73
2022/06/01 04:48:29;;;;;;;7.00;3.90;;;13.20;99.90;;;;;;5001938;28;20208;-71
2022/06/01 04:50:56;;;;;;;6.10;4.27;;;13.30;99.90;;;;;;5005191;28;20750;-70
2022/06/01 04:53:24;;;;;;;10.27;4.20;;;13.50;99.90;;;;;;5007691;28;20218;-71
2022/06/01 04:55:51;;;;;;;5.50;4.17;;;13.70;99.90;;;;;;5010303;28;20214;-73
2022/06/01 04:58:18;;;;;;;6.03;3.73;;;14.00;99.90;;;;;;4993426;28;20198;-74
2022/06/01 05:00:45;;;;;;;6.83;3.97;;;14.20;99.90;;;;;;5008831;28;20613;-73
2022/06/01 05:03:12;;;;;;;6.23;4.33;;;14.10;99.90;;;;;;5004004;28;20210;-75
2022/06/01 05:05:40;;;;;;;5.57;3.90;;;14.20;99.90;;;;;;4998398;28;20548;-72
2022/06/01 05:08:13;;;;;;;5.60;4.10;;;14.20;99.90;;;;;;4992470;28;20206;-72
2022/06/01 05:10:41;;;;;;;5.53;3.77;;;14.30;99.90;;;;;;4996685;28;20208;-72
2022/06/01 05:13:09;;;;;;;5.70;3.60;;;14.30;99.90;;;;;;4992322;28;20215;-71
2022/06/01 05:15:46;;;;;;;3.47;3.00;;;14.40;99.90;;;;;;5003077;28;20281;-73
2022/06/01 05:18:13;;;;;;;3.97;2.90;;;14.30;99.90;;;;;;4980382;28;20214;-73
2022/06/01 05:20:40;;;;;;;3.90;3.00;;;14.40;99.90;;;;;;4991944;28;20771;-72
2022/06/01 05:23:08;;;;;;;3.97;3.17;;;14.50;99.90;;;;;;4991644;28;20196;-71
2022/06/01 05:25:40;;;;;;;4.03;3.17;;;14.70;99.90;;;;;;4999393;28;20230;-72
2022/06/01 05:28:07;;;;;;;5.80;3.03;;;14.80;99.90;;;;;;4999021;28;20230;-72
2022/06/01 05:30:33;;;;;;;5.53;2.80;;;15.00;99.90;;;;;;4991717;28;20213;-73
2022/06/01 05:33:00;;;;;;;4.03;2.70;;;15.20;99.90;;;;;;5003087;28;20656;-73
2022/06/01 05:35:27;;;;;;;6.20;3.13;;;15.40;99.90;;;;;;4998801;28;20212;-72
2022/06/01 05:37:53;;;;;;;4.03;2.90;;;15.40;99.90;;;;;;4983191;28;20197;-71
2022/06/01 05:40:20;;;;;;;6.10;3.13;;;15.30;99.90;;;;;;4991497;28;20690;-71
2022/06/01 05:42:47;;;;;;;4.80;3.10;;;15.20;99.90;;;;;;4999083;28;20204;-72
2022/06/01 05:45:14;;;;;;;6.37;3.50;;;15.00;99.90;;;;;;4995303;28;20221;-72
2022/06/01 05:47:40;;;;;;;6.90;3.60;;;15.10;99.90;;;;;;4991292;28;20664;-72
2022/06/01 05:50:08;;;;;;;6.87;3.97;;;15.50;99.90;;;;;;4991759;28;20196;-73
2022/06/01 05:52:38;;;;;;;8.27;3.80;;;15.70;99.90;;;;;;4991576;28;20200;-71
2022/06/01 05:55:08;;;;;;;4.70;3.50;;;15.70;99.90;;;;;;4975322;28;20278;-72
2022/06/01 05:57:35;;;;;;;6.13;3.80;;;15.90;99.90;;;;;;4999044;28;20203;-71
2022/06/01 06:00:09;;;;;;;8.03;3.43;;;15.80;99.90;;;;;;4991051;28;20192;-72
2022/06/01 06:02:35;;;;;;;5.30;3.50;;;15.90;99.90;;;;;;4991563;28;20189;-73
2022/06/01 06:05:03;;;;;;;5.33;3.63;;;16.00;99.90;;;;;;4995550;28;20813;-72
2022/06/01 06:07:30;;;;;;;5.17;3.57;;;16.00;99.90;;;;;;4991208;28;20218;-74
2022/06/01 06:09:57;;;;;;;3.73;3.17;;;16.00;99.90;;;;;;4999221;28;20196;-71
2022/06/01 06:12:24;;;;;;;6.07;3.60;;;15.90;99.90;;;;;;4999330;28;20252;-73
2022/06/01 06:14:51;;;;;;;5.03;3.53;;;15.90;99.90;;;;;;4994341;28;20639;-70
2022/06/01 06:17:18;;;;;;;5.60;3.23;;;16.00;99.90;;;;;;4996918;28;20913;-73
2022/06/01 06:19:45;;;;;;;5.60;3.30;;;16.10;99.90;;;;;;4993054;28;20197;-72
2022/06/01 06:22:11;;;;;;;7.13;3.53;;;16.10;99.90;;;;;;4991061;28;20219;-72
2022/06/01 06:24:38;;;;;;;7.07;3.70;;;16.10;99.90;;;;;;4989944;28;20227;-72
2022/06/01 06:27:05;;;;;;;3.87;3.40;;;16.30;99.90;;;;;;4991243;28;20244;-69
2022/06/01 06:29:31;;;;;;;5.20;3.20;;;16.50;99.90;;;;;;4990774;28;20680;-71
2022/06/01 06:31:58;;;;;;;5.87;3.00;;;16.60;99.90;;;;;;4990700;28;20599;-72
2022/06/01 06:34:25;;;;;;;6.67;3.23;;;16.70;99.90;;;;;;4993581;28;20229;-72
2022/06/01 06:36:54;;;;;;;5.00;3.23;;;16.80;99.90;;;;;;4999073;28;20204;-72
2022/06/01 06:39:20;;;;;;;5.63;3.47;;;16.80;99.90;;;;;;4996897;28;20208;-71
2022/06/01 06:41:47;;;;;;;4.53;2.97;;;16.70;99.90;;;;;;4976857;28;20219;-72
2022/06/01 06:44:14;;;;;;;6.70;2.37;;;16.70;99.90;;;;;;4997445;28;20204;-72
2022/06/01 06:46:40;;;;;;;3.17;2.30;;;17.00;99.90;;;;;;4975907;28;20205;-72
2022/06/01 06:49:07;;;;;;;2.97;2.00;;;17.50;99.90;;;;;;4990872;28;20231;-72
2022/06/01 06:51:36;;;;;;;3.83;2.03;;;17.70;99.90;;;;;;4990777;28;20197;-74
2022/06/01 06:54:03;;;;;;;6.00;2.20;;;17.60;99.90;;;;;;4993682;28;20213;-72
2022/06/01 06:56:30;;;;;;;6.73;2.50;;;17.50;99.90;;;;;;4990163;28;20232;-71
2022/06/01 06:58:57;;;;;;;2.40;1.80;;;17.60;99.90;;;;;;4981493;28;20197;-72
2022/06/01 07:01:24;;;;;;;3.13;2.10;;;17.80;99.90;;;;;;4997469;28;20199;-73
2022/06/01 07:03:52;;;;;;;3.63;1.83;;;18.40;99.90;;;;;;4991543;28;20201;-72
2022/06/01 07:06:24;;;;;;;3.13;1.80;;;19.60;99.90;;;;;;4990269;28;20316;-71
2022/06/01 07:08:53;;;;;;;1.90;1.63;;;20.10;99.90;;;;;;4992712;28;20197;-71
2022/06/01 07:11:22;;;;;;;2.67;1.40;;;20.40;99.90;;;;;;4979401;28;20201;-72
2022/06/01 07:13:50;;;;;;;3.40;1.57;;;20.90;99.90;;;;;;4990454;28;20258;-72
2022/06/01 07:16:30;;;;;;;2.93;1.43;;;21.40;99.90;;;;;;4990498;28;20221;-72
2022/06/01 07:18:59;;;;;;;2.87;1.43;;;21.00;99.90;;;;;;4993558;28;20274;-73
2022/06/01 07:21:27;;;;;;;2.70;1.20;;;21.30;99.90;;;;;;5001960;28;20201;-73
2022/06/01 07:23:58;;;;;;;1.97;1.17;;;21.30;99.90;;;;;;4998629;28;20197;-72
2022/06/01 07:26:27;;;;;;;2.27;1.20;;;20.80;99.90;;;;;;4998461;28;20224;-72
2022/06/01 07:28:54;;;;;;;3.33;1.30;;;20.60;99.90;;;;;;5001906;28;20196;-74
2022/06/01 07:31:21;;;;;;;2.23;1.33;;;21.00;99.90;;;;;;4994096;28;20204;-72
2022/06/01 07:33:51;;;;;;;3.93;1.40;;;21.10;99.90;;;;;;5000127;28;20360;-73
2022/06/01 07:36:18;;;;;;;1.50;1.20;;;21.00;99.90;;;;;;5009871;28;20216;-73
2022/06/01 07:44:31;;;;;;;1.65;1.23;;;21.20;99.90;;;;;;4999804;28;20220;-72
2022/06/01 07:46:57;;;;;;;1.98;1.10;;;21.30;99.90;;;;;;4977111;28;20201;-74
2022/06/01 07:49:44;;;;;;;1.20;1.10;;;21.80;99.90;;;;;;4993847;28;20267;-71
2022/06/01 07:52:30;;;;;;;1.70;1.10;;;22.10;99.90;;;;;;4993745;28;20236;-72
2022/06/01 07:54:57;;;;;;;1.23;1.05;;;22.10;99.90;;;;;;5005183;28;20244;-72
2022/06/01 07:57:24;;;;;;;1.95;1.20;;;21.60;99.90;;;;;;5001634;28;20272;-72
2022/06/01 07:59:50;;;;;;;2.27;1.20;;;21.70;99.90;;;;;;4993398;28;20204;-72
2022/06/01 08:02:17;;;;;;;1.20;1.10;;;21.30;99.90;;;;;;4993510;28;20201;-74
2022/06/01 08:04:44;;;;;;;1.77;1.30;;;21.10;99.90;;;;;;5000294;28;20275;-71
2022/06/01 08:07:10;;;;;;;2.87;1.40;;;21.10;99.90;;;;;;5005915;28;20574;-73
2022/06/01 08:09:37;;;;;;;2.25;1.10;;;21.00;99.90;;;;;;5005083;28;20200;-73
2022/06/01 08:14:50;;;;;;;2.00;1.13;;;21.10;99.90;;;;;;5003701;28;20228;-73
2022/06/01 08:17:16;;;;;;;3.00;1.30;;;21.10;99.90;;;;;;5007262;28;20371;-73
2022/06/01 08:19:46;;;;;;;1.50;1.10;;;20.80;99.90;;;;;;5002634;28;20204;-72
2022/06/01 08:22:15;;;;;;;2.40;1.37;;;20.80;99.90;;;;;;5007382;28;20629;-72
2022/06/01 08:24:41;;;;;;;1.30;1.20;;;20.80;99.90;;;;;;4982768;28;20520;-73
2022/06/01 08:27:08;;;;;;;1.03;0.93;;;20.90;99.90;;;;;;4993346;28;20243;-73
2022/06/01 08:29:36;;;;;;;1.33;0.90;;;20.70;99.90;;;;;;5009110;28;20219;-73
2022/06/01 08:32:03;;;;;;;0.80;0.80;;;20.80;99.90;;;;;;4997012;28;20192;-71
2022/06/01 08:34:30;;;;;;;0.93;0.80;;;20.80;99.90;;;;;;4994641;28;20620;-72
2022/06/01 08:36:56;;;;;;;1.03;0.67;;;20.80;99.90;;;;;;5001074;28;20239;-73
2022/06/01 08:39:23;;;;;;;1.07;0.90;;;20.70;99.90;;;;;;5007357;28;20212;-73
2022/06/01 08:41:50;;;;;;;0.80;0.80;;;20.90;99.90;;;;;;4984913;28;20211;-72
2022/06/01 08:44:31;;;;;;;1.42;0.93;;;21.10;99.90;;;;;;4996787;28;20648;-73
2022/06/01 08:47:02;;;;;;;1.73;0.70;;;20.80;99.90;;;;;;4986976;28;20200;-71
2022/06/01 08:49:33;;;;;;;0.93;0.73;;;20.60;99.90;;;;;;5005355;28;20652;-73
2022/06/01 08:52:00;;;;;;;1.13;0.70;;;20.70;99.90;;;;;;5012152;28;20196;-73
2022/06/01 08:54:27;;;;;;;0.95;0.85;;;20.70;99.90;;;;;;4995892;28;20324;-73
2022/06/01 08:57:05;;;;;;;1.02;0.80;;;21.00;99.90;;;;;;4994856;28;20255;-73
2022/06/01 08:59:47;;;;;;;1.48;0.70;;;21.00;99.90;;;;;;5004979;28;20203;-74
2022/06/01 09:02:38;;;;;;;1.20;0.90;;;21.30;99.90;;;;;;4993234;28;20714;-73
2022/06/01 09:05:21;;;;;;;2.42;0.80;;;21.60;99.90;;;;;;5003713;28;20216;-74
2022/06/01 09:08:32;;;;;;;1.50;0.70;;;21.60;99.90;;;;;;5012042;28;20207;-71
2022/06/01 09:11:08;;;;;;;1.63;1.10;;;21.80;99.90;;;;;;4981591;28;20565;-74
2022/06/01 09:13:44;;;;;;;2.03;0.70;;;22.00;99.90;;;;;;4991965;28;20247;-73
2022/06/01 09:16:20;;;;;;;1.23;0.93;;;22.40;99.90;;;;;;4976644;28;20295;-73
2022/06/01 09:18:53;;;;;;;2.03;0.90;;;22.30;99.90;;;;;;5002111;28;20483;-72
2022/06/01 09:24:34;;;;;;;2.08;0.90;;;22.70;99.90;;;;;;4999280;28;20196;-75
2022/06/01 09:27:07;;;;;;;3.00;1.00;;;23.20;99.90;;;;;;5000338;28;20196;-71
2022/06/01 09:29:43;;;;;;;1.00;0.90;;;23.30;99.90;;;;;;4999525;28;20676;-73
2022/06/01 09:32:27;;;;;;;1.63;1.10;;;22.70;99.90;;;;;;5004374;28;20249;-73
2022/06/01 09:34:59;;;;;;;7.18;1.08;;;22.50;99.90;;;;;;4991491;28;20225;-74
2022/06/01 09:37:31;;;;;;;1.00;0.90;;;22.50;99.90;;;;;;5000118;28;20197;-71
2022/06/01 09:40:01;;;;;;;0.90;0.80;;;22.60;99.90;;;;;;5002884;28;20684;-73
2022/06/01 09:42:34;;;;;;;2.08;1.00;;;22.60;99.90;;;;;;4995910;28;20197;-74
2022/06/01 09:45:11;;;;;;;3.20;1.50;;;22.40;99.90;;;;;;4999184;28;20227;-72
2022/06/01 09:47:43;;;;;;;1.25;0.90;;;22.30;99.90;;;;;;4994649;28;20197;-73
2022/06/01 09:50:28;;;;;;;1.33;0.88;;;22.50;99.90;;;;;;4997905;28;20259;-75
2022/06/01 09:52:58;;;;;;;0.98;0.90;;;22.60;99.90;;;;;;4999002;28;20200;-72
2022/06/01 09:55:27;;;;;;;2.30;1.33;;;23.00;99.90;;;;;;4990322;28;20291;-74
2022/06/01 09:58:12;;;;;;;1.33;0.90;;;23.10;99.90;;;;;;4993971;28;20219;-73
2022/06/01 10:06:25;;;;;;;1.38;0.85;;;22.50;99.90;;;;;;4992958;28;20228;-73
2022/06/01 10:08:57;;;;;;;1.42;0.80;;;22.20;99.60;;;;;;4990989;28;20619;-73
2022/06/01 10:11:43;;;;;;;6.43;0.80;;;22.30;99.90;;;;;;4991027;28;20716;-73
2022/06/01 10:14:14;;;;;;;1.27;0.80;;;22.10;99.90;;;;;;4996770;28;20200;-73
2022/06/01 10:16:58;;;;;;;1.17;0.90;;;21.70;99.90;;;;;;4998965;28;20222;-73
2022/06/01 10:19:37;;;;;;;1.60;0.77;;;21.50;99.90;;;;;;5006120;28;20206;-74
2022/06/01 10:22:36;;;;;;;0.93;0.80;;;21.40;99.90;;;;;;4998888;28;20201;-73
2022/06/01 10:25:15;;;;;;;1.25;0.88;;;21.60;99.90;;;;;;4991478;28;20692;-74
2022/06/01 10:27:56;;;;;;;4.07;0.80;;;21.70;99.90;;;;;;4990752;28;20216;-74
2022/06/01 10:30:30;;;;;;;1.48;0.70;;;21.60;99.90;;;;;;4990857;28;20633;-74
2022/06/01 10:33:03;;;;;;;1.30;0.80;;;21.70;99.90;;;;;;4994802;28;20224;-73
2022/06/01 10:35:44;;;;;;;1.90;0.90;;;21.50;99.70;;;;;;4990145;28;20244;-73
2022/06/01 10:38:19;;;;;;;2.63;0.88;;;21.40;99.90;;;;;;4998785;28;20196;-73
2022/06/01 10:41:10;;;;;;;2.83;0.75;;;21.40;99.90;;;;;;4991054;28;20295;-74
2022/06/01 10:43:57;;;;;;;1.52;0.95;;;21.40;99.90;;;;;;4990539;28;20212;-72
2022/06/01 10:46:53;;;;;;;1.08;1.00;;;21.80;99.90;;;;;;4990192;28;20220;-74
2022/06/01 10:49:36;;;;;;;0.98;0.88;;;22.50;99.90;;;;;;4999030;28;20197;-72
2022/06/01 10:52:23;;;;;;;4.15;0.90;;;22.70;99.90;;;;;;4990060;28;20652;-72
2022/06/01 10:55:14;;;;;;;1.13;0.85;;;22.50;99.70;;;;;;4995129;28;20228;-71
2022/06/01 10:57:44;;;;;;;1.00;0.90;;;22.20;99.90;;;;;;4990290;28;20220;-73
2022/06/01 11:00:15;;;;;;;1.38;0.80;;;22.30;99.50;;;;;;5003432;28;20200;-73
2022/06/01 11:02:57;;;;;;;1.30;0.80;;;22.10;99.90;;;;;;4994317;28;20208;-72
2022/06/01 11:06:17;;;;;;;2.53;0.93;;;22.00;99.90;;;;;;4993586;28;20216;-72
2022/06/01 11:09:05;;;;;;;2.60;0.95;;;22.30;99.50;;;;;;4959419;28;20201;-73
2022/06/01 11:12:00;;;;;;;0.80;0.70;;;22.00;99.80;;;;;;5010936;28;20208;-72
2022/06/01 11:14:41;;;;;;;1.17;0.80;;;22.30;99.80;;;;;;5003334;28;20229;-73
2022/06/01 11:17:36;;;;;;;7.03;0.90;;;22.30;99.10;;;;;;5007248;28;20196;-71
2022/06/01 11:20:34;;;;;;;1.73;0.90;;;22.20;99.90;;;;;;5006401;28;20652;-74
2022/06/01 11:23:26;;;;;;;1.17;1.00;;;22.40;99.10;;;;;;5012453;28;20192;-73
2022/06/01 11:26:02;;;;;;;1.45;0.90;;;22.70;98.80;;;;;;5004185;28;20232;-72
2022/06/01 11:28:53;;;;;;;1.95;0.80;;;23.00;98.50;;;;;;5013911;28;20200;-74
2022/06/01 11:31:28;;;;;;;1.05;0.95;;;23.50;98.00;;;;;;5008579;28;20207;-70
2022/06/01 11:34:17;;;;;;;0.88;0.75;;;23.90;97.80;;;;;;4995201;28;20797;-72
2022/06/01 11:37:18;;;;;;;0.85;0.85;;;23.80;98.40;;;;;;5013405;28;20219;-74
2022/06/01 11:40:04;;;;;;;1.40;1.10;;;23.90;97.20;;;;;;4989739;28;20644;-74
2022/06/01 11:42:55;;;;;;;0.95;0.80;;;23.30;97.30;;;;;;5010797;28;20231;-73
2022/06/01 11:45:39;;;;;;;3.30;0.90;;;22.90;97.30;;;;;;4989625;28;20220;-73
2022/06/01 11:48:12;;;;;;;1.13;0.80;;;22.90;97.20;;;;;;5005662;28;20196;-73
2022/06/01 11:51:17;;;;;;;2.13;0.75;;;22.90;97.80;;;;;;5012691;28;20695;-73
2022/06/01 11:54:24;;;;;;;1.60;0.80;;;23.00;97.40;;;;;;4998313;28;20204;-73
2022/06/01 11:57:02;;;;;;;1.13;0.70;;;23.00;97.70;;;;;;5011628;28;20196;-72
2022/06/01 11:59:32;;;;;;;2.45;0.85;;;22.70;97.30;;;;;;5012656;28;20715;-73
2022/06/01 12:02:41;;;;;;;1.02;0.82;;;22.70;97.20;;;;;;5012415;28;20567;-73
2022/06/01 12:05:13;;;;;;;1.98;0.80;;;22.70;96.80;;;;;;5007226;28;20274;-73
2022/06/01 12:07:46;;;;;;;3.50;1.13;;;22.90;97.40;;;;;;5012800;28;20301;-73
2022/06/01 12:10:21;;;;;;;0.93;0.82;;;22.90;97.20;;;;;;5013229;28;20196;-71
2022/06/01 12:13:02;;;;;;;0.95;0.88;;;22.40;96.40;;;;;;5006117;28;20200;-72
2022/06/01 12:16:06;;;;;;;1.17;0.70;;;22.30;97.00;;;;;;4992901;28;20286;-71
2022/06/01 12:18:35;;;;;;;1.02;0.80;;;22.70;96.20;;;;;;4988387;28;20196;-73
2022/06/01 12:21:20;;;;;;;0.82;0.70;;;22.70;97.50;;;;;;5004605;28;20618;-74
2022/06/01 12:29:54;;;;;;;1.67;0.88;;;23.40;96.10;;;;;;5012053;28;20203;-72
2022/06/01 12:32:21;;;;;;;1.58;0.80;;;23.60;96.20;;;;;;4994936;28;20208;-74
2022/06/01 12:35:22;;;;;;;0.70;0.70;;;23.60;95.20;;;;;;5006028;28;20232;-73
2022/06/01 12:37:58;;;;;;;2.15;0.63;;;23.60;94.70;;;;;;5009720;28;20200;-72
2022/06/01 12:40:26;;;;;;;1.00;0.70;;;23.60;94.60;;;;;;5012146;28;20192;-73
2022/06/01 12:42:59;;;;;;;1.27;0.80;;;23.30;95.50;;;;;;5011973;28;20200;-74
2022/06/01 12:45:37;;;;;;;0.75;0.60;;;23.30;95.00;;;;;;5005301;28;20222;-74
2022/06/01 12:48:12;;;;;;;0.82;0.80;;;23.60;94.70;;;;;;5004121;28;20282;-72
2022/06/01 12:50:48;;;;;;;0.68;0.68;;;23.90;94.20;;;;;;5011336;28;20215;-73
2022/06/01 12:53:24;;;;;;;0.60;0.60;;;24.10;94.40;;;;;;5008073;28;20247;-73
2022/06/01 12:56:06;;;;;;;0.60;0.60;;;24.60;95.40;;;;;;5008676;28;20699;-75
2022/06/01 12:58:34;;;;;;;2.28;0.60;;;24.40;94.20;;;;;;5012214;28;20196;-73
2022/06/01 13:01:02;;;;;;;1.67;0.77;;;24.30;94.70;;;;;;5003809;28;20201;-72
2022/06/01 13:03:33;;;;;;;2.03;1.00;;;24.30;94.00;;;;;;5012292;28;20304;-73
2022/06/01 13:06:09;;;;;;;0.88;0.70;;;24.80;93.70;;;;;;5007160;28;20286;-73
2022/06/01 13:08:40;;;;;;;0.60;0.60;;;24.70;92.40;;;;;;5011742;28;20203;-75
2022/06/01 13:11:21;;;;;;;1.27;0.50;;;24.50;92.70;;;;;;5004753;28;20242;-73
2022/06/01 13:13:48;;;;;;;2.40;1.17;;;24.80;92.80;;;;;;4994326;28;20207;-73
2022/06/01 13:16:15;;;;;;;3.30;0.80;;;25.30;92.70;;;;;;5004716;28;20220;-73
2022/06/01 13:18:44;;;;;;;2.20;0.70;;;25.00;92.50;;;;;;5011567;28;20200;-73
2022/06/01 13:21:30;;;;;;;0.65;0.60;;;24.90;92.80;;;;;;5011390;28;20223;-72
2022/06/01 13:24:03;;;;;;;2.42;0.68;;;25.00;93.50;;;;;;5010154;28;20198;-73
2022/06/01 13:26:43;;;;;;;0.85;0.80;;;25.20;92.90;;;;;;5008882;28;20223;-74
2022/06/01 13:29:26;;;;;;;0.68;0.68;;;25.10;92.90;;;;;;4987041;28;20586;-74
2022/06/01 13:32:01;;;;;;;0.63;0.50;;;24.70;92.10;;;;;;5011047;28;20730;-72
2022/06/01 13:34:52;;;;;;;1.45;0.77;;;25.00;92.80;;;;;;5004962;28;20252;-74
2022/06/01 13:37:19;;;;;;;0.60;0.60;;;25.40;92.70;;;;;;5005034;28;20219;-73
2022/06/01 13:39:52;;;;;;;1.27;0.60;;;25.80;92.30;;;;;;5011197;28;20196;-74
2022/06/01 13:42:31;;;;;;;0.52;0.52;;;25.80;92.40;;;;;;5011575;28;20750;-73
2022/06/01 13:45:04;;;;;;;0.60;0.60;;;25.20;92.00;;;;;;4990808;28;20215;-73
2022/06/01 13:47:35;;;;;;;1.40;0.70;;;24.30;92.00;;;;;;5010647;28;20265;-73
2022/06/01 13:50:14;;;;;;;0.60;0.60;;;23.80;92.80;;;;;;5006500;28;20280;-73
2022/06/01 13:52:48;;;;;;;0.60;0.60;;;23.70;92.90;;;;;;5007813;28;20207;-72
2022/06/01 13:55:28;;;;;;;1.30;0.65;;;23.60;92.90;;;;;;5003063;28;20226;-73